Time;durP1;ratioP1;P1;durP2;ratioP2;P2;SDS_P1;SDS_P2;PMS_P1;PMS_P2;Temp;Humidity;BMP_temperature;BMP_pressure;BME280_temperature;BME280_humidity;BME280_pressure;Samples;Min_cycle;Max_cycle;Signal;HPM_P1;HPM_P2
2023/01/23 00:00:52;;;;;;;18.60;17.50;;;5.70;33.00;;;;;;5011109;28;20491;-75
2023/01/23 00:03:18;;;;;;;18.63;17.53;;;5.70;33.00;;;;;;5011050;28;20475;-76
2023/01/23 00:05:58;;;;;;;18.30;17.30;;;5.70;32.40;;;;;;5011273;28;20848;-76
2023/01/23 00:08:24;;;;;;;19.13;18.03;;;5.70;32.50;;;;;;4993366;28;20212;-76
2023/01/23 00:10:49;;;;;;;17.43;16.53;;;5.70;32.80;;;;;;5009913;28;20482;-75
2023/01/23 00:13:16;;;;;;;18.50;17.40;;;5.70;32.80;;;;;;5010816;28;20185;-75
2023/01/23 00:15:42;;;;;;;17.87;16.87;;;5.70;32.50;;;;;;5009538;28;20228;-76
2023/01/23 00:18:07;;;;;;;19.33;18.13;;;5.80;32.40;;;;;;5009592;28;20476;-76
2023/01/23 00:20:35;;;;;;;17.37;16.23;;;5.80;32.10;;;;;;5010487;28;20186;-76
2023/01/23 00:23:01;;;;;;;19.13;18.00;;;5.80;32.40;;;;;;5009269;28;20189;-75
2023/01/23 00:25:26;;;;;;;18.50;17.30;;;5.70;31.80;;;;;;5010570;28;20505;-76
2023/01/23 00:27:52;;;;;;;18.90;17.83;;;5.70;32.00;;;;;;5010115;28;20577;-74
2023/01/23 00:30:18;;;;;;;19.30;18.10;;;5.70;32.50;;;;;;5009431;28;20193;-75
2023/01/23 00:32:43;;;;;;;18.67;17.50;;;5.60;32.40;;;;;;5008836;28;20662;-75
2023/01/23 00:35:09;;;;;;;19.27;18.07;;;5.60;32.40;;;;;;5010510;28;20190;-77
2023/01/23 00:37:34;;;;;;;18.70;17.60;;;5.40;33.40;;;;;;5010553;28;20271;-76
2023/01/23 00:40:00;;;;;;;19.17;18.07;;;5.30;33.90;;;;;;5009289;28;20853;-76
2023/01/23 00:42:25;;;;;;;17.90;16.90;;;5.40;33.70;;;;;;5009349;28;20576;-76
2023/01/23 00:44:51;;;;;;;19.40;18.23;;;5.40;33.50;;;;;;5008049;28;20280;-76
2023/01/23 00:47:16;;;;;;;19.13;18.03;;;5.50;33.00;;;;;;5010530;28;20279;-76
2023/01/23 00:49:42;;;;;;;19.17;18.00;;;5.50;32.70;;;;;;5010337;28;20532;-76
2023/01/23 00:52:07;;;;;;;19.00;17.90;;;5.50;32.70;;;;;;5009591;28;20189;-76
2023/01/23 00:54:33;;;;;;;18.27;17.13;;;5.50;32.50;;;;;;5009780;28;20239;-76
2023/01/23 00:56:58;;;;;;;19.10;18.00;;;5.50;32.50;;;;;;5010041;28;20205;-75
2023/01/23 00:59:24;;;;;;;18.67;17.60;;;5.50;32.80;;;;;;5009405;28;20178;-77
2023/01/23 01:01:50;;;;;;;17.80;16.80;;;5.60;32.40;;;;;;5008306;28;20201;-76
2023/01/23 01:04:15;;;;;;;19.17;18.07;;;5.50;32.80;;;;;;5010199;28;20193;-76
2023/01/23 01:06:41;;;;;;;17.33;16.33;;;5.60;32.20;;;;;;5008247;28;20352;-76
2023/01/23 01:09:06;;;;;;;19.47;18.27;;;5.50;32.20;;;;;;5009786;28;20217;-76
2023/01/23 01:11:32;;;;;;;18.87;17.83;;;5.50;32.50;;;;;;5009392;28;20177;-76
2023/01/23 01:13:58;;;;;;;18.03;17.00;;;5.30;32.70;;;;;;5009698;28;20178;-75
2023/01/23 01:16:23;;;;;;;17.67;16.67;;;5.20;33.10;;;;;;5012078;28;20193;-76
2023/01/23 01:18:49;;;;;;;17.97;16.87;;;5.30;32.70;;;;;;5018438;28;20221;-76
2023/01/23 01:21:16;;;;;;;17.50;16.50;;;5.40;32.50;;;;;;5019285;28;20212;-75
2023/01/23 01:23:42;;;;;;;16.90;15.90;;;5.50;32.30;;;;;;5019786;28;20427;-75
2023/01/23 01:26:08;;;;;;;17.80;16.80;;;5.50;31.20;;;;;;5018057;28;20460;-76
2023/01/23 01:28:36;;;;;;;17.50;16.47;;;5.40;32.40;;;;;;5014708;28;20220;-75
2023/01/23 01:31:09;;;;;;;16.43;15.53;;;5.40;32.30;;;;;;5016822;28;20446;-76
2023/01/23 01:33:36;;;;;;;17.90;16.80;;;5.40;31.90;;;;;;5008537;28;20424;-77
2023/01/23 01:36:02;;;;;;;16.57;15.63;;;5.30;32.60;;;;;;5010254;28;20531;-77
2023/01/23 01:38:28;;;;;;;16.00;15.10;;;5.30;32.70;;;;;;5010438;28;20499;-75
2023/01/23 01:40:56;;;;;;;16.57;15.57;;;5.40;32.30;;;;;;5010918;28;20416;-76
2023/01/23 01:43:24;;;;;;;18.73;17.63;;;5.50;31.90;;;;;;5010566;28;20204;-76
2023/01/23 01:46:13;;;;;;;16.80;15.87;;;5.50;31.80;;;;;;5009532;28;20523;-76
2023/01/23 01:49:09;;;;;;;17.20;16.20;;;5.40;32.00;;;;;;5010628;28;20444;-77
2023/01/23 01:51:56;;;;;;;17.80;16.80;;;5.10;34.00;;;;;;5010638;28;20416;-76
2023/01/23 01:54:31;;;;;;;19.10;17.90;;;5.20;33.50;;;;;;5010512;28;20804;-74
2023/01/23 01:57:15;;;;;;;17.07;16.07;;;5.20;33.60;;;;;;5010768;28;20500;-76
2023/01/23 02:00:09;;;;;;;17.63;16.60;;;5.10;34.00;;;;;;5009567;28;20443;-76
2023/01/23 02:02:42;;;;;;;18.50;17.40;;;5.20;33.80;;;;;;5010785;28;20463;-76
2023/01/23 02:05:21;;;;;;;18.27;17.00;;;5.30;33.10;;;;;;5011263;28;20492;-76
2023/01/23 02:07:59;;;;;;;18.10;17.10;;;5.50;32.30;;;;;;5010725;28;20459;-76
2023/01/23 02:10:25;;;;;;;17.80;16.80;;;5.50;32.20;;;;;;5011148;28;20420;-75
2023/01/23 02:12:52;;;;;;;19.17;18.07;;;5.60;31.90;;;;;;5010905;28;20420;-76
2023/01/23 02:15:20;;;;;;;17.10;16.10;;;5.60;31.40;;;;;;5009064;28;20186;-76
2023/01/23 02:17:48;;;;;;;17.90;16.90;;;5.40;32.50;;;;;;5020308;28;20814;-76
2023/01/23 02:20:24;;;;;;;17.57;16.63;;;5.50;32.40;;;;;;5021777;28;20412;-76
2023/01/23 02:23:08;;;;;;;18.13;17.03;;;5.60;32.20;;;;;;5013577;28;20412;-76
2023/01/23 02:25:40;;;;;;;18.67;17.57;;;5.60;31.90;;;;;;5013889;28;20514;-76
2023/01/23 02:28:06;;;;;;;17.87;16.87;;;5.70;31.70;;;;;;5029304;28;20504;-76
2023/01/23 02:30:32;;;;;;;18.10;17.07;;;5.70;31.40;;;;;;5035193;28;20439;-76
2023/01/23 02:33:27;;;;;;;18.53;17.43;;;5.50;31.70;;;;;;5035624;28;20178;-76
2023/01/23 02:35:53;;;;;;;18.30;17.20;;;5.50;32.00;;;;;;5018907;28;20214;-75
2023/01/23 02:38:24;;;;;;;18.10;17.00;;;5.50;32.70;;;;;;5035053;28;20856;-76
2023/01/23 02:40:51;;;;;;;17.77;16.70;;;5.50;32.40;;;;;;5035173;28;20460;-76
2023/01/23 02:43:20;;;;;;;18.80;17.80;;;5.60;32.20;;;;;;5034631;28;20544;-76
2023/01/23 02:45:46;;;;;;;20.60;19.40;;;5.70;31.90;;;;;;5034730;28;20429;-75
2023/01/23 02:48:12;;;;;;;18.90;17.80;;;5.70;31.70;;;;;;5032846;28;20452;-74
2023/01/23 02:50:38;;;;;;;17.80;16.80;;;5.70;32.00;;;;;;5036078;28;20427;-74
2023/01/23 02:53:04;;;;;;;20.40;19.10;;;5.60;32.40;;;;;;5037115;28;20416;-74
2023/01/23 02:55:32;;;;;;;19.10;18.00;;;5.40;32.70;;;;;;5035252;28;20189;-75
2023/01/23 03:00:14;;;;;;;17.53;16.40;;;5.40;32.40;;;;;;5035448;28;20431;-76
2023/01/23 03:00:43;;;;;;;18.93;17.83;;;5.50;32.80;;;;;;5035458;28;20412;-74
2023/01/23 03:03:09;;;;;;;19.73;18.47;;;5.20;32.70;;;;;;5035426;28;20444;-76
2023/01/23 03:05:34;;;;;;;20.77;19.57;;;5.00;34.10;;;;;;5033998;28;20448;-76
2023/01/23 03:08:00;;;;;;;20.53;19.23;;;5.00;35.20;;;;;;5036011;28;20233;-76
2023/01/23 03:10:26;;;;;;;19.80;18.60;;;5.10;34.00;;;;;;5035471;28;20173;-76
2023/01/23 03:12:51;;;;;;;19.20;18.10;;;5.20;33.50;;;;;;5016851;28;20189;-76
2023/01/23 03:15:17;;;;;;;20.33;19.13;;;5.30;33.10;;;;;;5014483;28;20205;-75
2023/01/23 03:17:42;;;;;;;21.37;19.77;;;5.40;33.30;;;;;;5014091;28;20799;-76
2023/01/23 03:20:09;;;;;;;19.30;18.13;;;5.50;32.80;;;;;;5013319;28;20185;-76
2023/01/23 03:22:34;;;;;;;19.83;18.63;;;5.50;32.20;;;;;;5012855;28;20184;-76
2023/01/23 03:25:00;;;;;;;19.73;18.57;;;5.50;32.20;;;;;;5011797;28;20416;-76
2023/01/23 03:27:26;;;;;;;18.90;17.80;;;5.40;32.40;;;;;;5011648;28;20722;-76
2023/01/23 03:32:37;;;;;;;18.93;17.83;;;5.30;32.70;;;;;;5012253;28;20212;-75
2023/01/23 03:35:03;;;;;;;21.43;20.13;;;5.40;32.60;;;;;;5012483;28;20443;-75
2023/01/23 03:37:29;;;;;;;19.87;18.77;;;5.40;32.50;;;;;;5012744;28;20437;-76
2023/01/23 03:42:39;;;;;;;21.00;19.70;;;5.50;31.90;;;;;;5012963;28;20259;-76
2023/01/23 03:45:05;;;;;;;19.60;18.50;;;5.60;32.50;;;;;;5012957;28;21133;-76
2023/01/23 03:47:31;;;;;;;20.20;19.00;;;5.60;33.00;;;;;;4995297;28;20228;-76
2023/01/23 03:49:57;;;;;;;21.00;19.70;;;5.70;31.80;;;;;;5010475;28;20421;-75
2023/01/23 03:52:22;;;;;;;20.97;19.73;;;5.70;31.90;;;;;;5013097;28;20301;-75
2023/01/23 03:54:48;;;;;;;20.70;19.40;;;5.70;31.60;;;;;;5012888;28;20205;-75
2023/01/23 03:57:14;;;;;;;20.13;18.93;;;5.70;32.00;;;;;;5012192;28;20617;-75
2023/01/23 03:59:39;;;;;;;22.00;20.60;;;5.60;31.80;;;;;;5012468;28;20249;-75
2023/01/23 04:02:05;;;;;;;20.97;19.67;;;5.50;32.60;;;;;;4995090;28;20659;-76
2023/01/23 04:04:32;;;;;;;20.33;19.10;;;5.50;31.60;;;;;;5013198;28;20293;-76
2023/01/23 04:06:57;;;;;;;21.93;20.53;;;5.50;32.10;;;;;;4994787;28;20688;-77
2023/01/23 04:09:26;;;;;;;21.23;20.00;;;5.60;31.90;;;;;;5011372;28;20514;-77
2023/01/23 04:11:53;;;;;;;21.60;20.30;;;5.40;31.70;;;;;;5010885;28;20551;-76
2023/01/23 04:14:20;;;;;;;23.07;21.67;;;5.30;32.60;;;;;;5010831;28;20930;-77
2023/01/23 04:16:45;;;;;;;21.63;20.33;;;5.40;32.60;;;;;;5011211;28;20433;-77
2023/01/23 04:19:11;;;;;;;21.60;20.30;;;5.50;32.00;;;;;;5011388;28;20416;-75
2023/01/23 04:21:36;;;;;;;21.53;20.27;;;5.60;31.80;;;;;;5009689;28;20648;-75
2023/01/23 04:24:02;;;;;;;23.10;21.63;;;5.60;31.70;;;;;;5011592;28;20193;-76
2023/01/23 04:26:28;;;;;;;22.27;20.97;;;5.70;31.60;;;;;;5010270;28;20217;-76
2023/01/23 04:28:53;;;;;;;21.30;20.00;;;5.70;31.60;;;;;;5011079;28;20197;-77
2023/01/23 04:31:19;;;;;;;22.27;20.97;;;5.70;31.30;;;;;;5011024;28;20674;-76
2023/01/23 04:33:44;;;;;;;21.50;20.27;;;5.70;31.50;;;;;;5010383;28;20185;-76
2023/01/23 04:36:10;;;;;;;21.20;20.00;;;5.70;31.40;;;;;;5009237;28;20217;-76
2023/01/23 04:38:36;;;;;;;21.80;20.50;;;5.70;31.50;;;;;;5008687;28;20212;-76
2023/01/23 04:41:02;;;;;;;23.17;21.77;;;5.70;31.70;;;;;;5008731;28;20424;-76
2023/01/23 04:43:28;;;;;;;21.53;20.03;;;5.60;31.90;;;;;;5009180;28;20181;-75
2023/01/23 04:45:54;;;;;;;21.10;19.90;;;5.70;32.00;;;;;;5009438;28;20444;-75
2023/01/23 04:48:21;;;;;;;21.70;20.33;;;5.80;31.30;;;;;;5009282;28;20241;-75
2023/01/23 04:50:47;;;;;;;21.27;19.97;;;5.80;30.90;;;;;;5009215;28;20404;-76
2023/01/23 04:53:13;;;;;;;21.20;19.90;;;5.90;30.80;;;;;;5009862;28;20412;-76
2023/01/23 04:55:39;;;;;;;20.30;19.10;;;6.10;30.40;;;;;;5009481;28;20433;-76
2023/01/23 04:58:04;;;;;;;19.77;18.57;;;6.20;29.90;;;;;;5009838;28;20420;-76
2023/01/23 05:00:30;;;;;;;22.23;20.80;;;6.20;29.60;;;;;;5008321;28;20563;-76
2023/01/23 05:02:56;;;;;;;19.90;18.70;;;6.30;29.60;;;;;;5009145;28;20181;-77
2023/01/23 05:05:22;;;;;;;19.90;18.60;;;6.40;29.70;;;;;;5008769;28;20276;-75
2023/01/23 05:07:48;;;;;;;19.80;18.60;;;6.50;30.90;;;;;;5009197;28;20986;-76
2023/01/23 05:10:15;;;;;;;21.00;19.70;;;6.60;30.00;;;;;;5001767;28;20188;-76
2023/01/23 05:12:41;;;;;;;20.17;18.87;;;6.70;29.50;;;;;;5009181;28;20671;-76
2023/01/23 05:15:07;;;;;;;21.27;19.90;;;6.50;28.90;;;;;;5009456;28;20416;-76
2023/01/23 05:17:33;;;;;;;20.77;19.37;;;6.10;30.00;;;;;;5009772;28;20240;-76
2023/01/23 05:19:58;;;;;;;21.53;20.13;;;6.10;30.20;;;;;;5009173;28;20416;-76
2023/01/23 05:22:24;;;;;;;21.57;20.13;;;6.20;30.40;;;;;;5009219;28;20270;-75
2023/01/23 05:24:50;;;;;;;20.87;19.60;;;6.30;29.60;;;;;;5009262;28;20201;-76
2023/01/23 05:27:15;;;;;;;20.40;19.10;;;6.20;29.60;;;;;;5006015;28;20259;-74
2023/01/23 05:29:41;;;;;;;20.90;19.57;;;6.30;29.60;;;;;;5006881;28;20808;-75
2023/01/23 05:32:06;;;;;;;20.70;19.30;;;6.30;29.60;;;;;;5009306;28;20189;-74
2023/01/23 05:34:32;;;;;;;21.50;20.00;;;6.30;29.60;;;;;;5008123;28;20199;-74
2023/01/23 05:36:58;;;;;;;20.33;19.10;;;6.30;29.60;;;;;;5008224;28;20726;-75
2023/01/23 05:39:23;;;;;;;20.10;18.90;;;6.30;29.40;;;;;;5009732;28;20417;-75
2023/01/23 05:41:49;;;;;;;19.87;18.57;;;6.30;29.60;;;;;;4991890;28;20192;-75
2023/01/23 05:44:14;;;;;;;20.93;19.60;;;6.30;29.60;;;;;;5009148;28;20189;-75
2023/01/23 05:46:40;;;;;;;20.90;19.40;;;6.30;29.60;;;;;;5009855;28;20209;-75
2023/01/23 05:49:05;;;;;;;20.47;19.17;;;6.30;29.60;;;;;;5011279;28;20221;-74
2023/01/23 05:51:32;;;;;;;21.47;19.97;;;6.20;29.60;;;;;;5011158;28;20264;-74
2023/01/23 05:53:59;;;;;;;19.90;18.60;;;6.20;29.60;;;;;;5011021;28;20643;-74
2023/01/23 05:56:25;;;;;;;22.03;20.53;;;6.10;29.50;;;;;;5010965;28;20760;-74
2023/01/23 05:58:51;;;;;;;21.63;20.13;;;6.00;29.90;;;;;;5010800;28;20412;-75
2023/01/23 06:01:17;;;;;;;21.00;19.60;;;6.00;29.70;;;;;;5010996;28;20423;-74
2023/01/23 06:03:43;;;;;;;21.20;19.70;;;5.80;31.00;;;;;;5012152;28;20196;-75
2023/01/23 06:06:08;;;;;;;20.67;19.27;;;5.90;30.30;;;;;;5012098;28;20440;-75
2023/01/23 06:08:34;;;;;;;20.10;18.80;;;5.90;30.50;;;;;;5011132;28;20647;-75
2023/01/23 06:10:59;;;;;;;21.63;19.93;;;5.90;30.10;;;;;;5010868;28;20220;-75
2023/01/23 06:13:26;;;;;;;21.03;19.80;;;5.90;31.00;;;;;;5011664;28;20677;-75
2023/01/23 06:15:52;;;;;;;20.50;19.10;;;6.00;30.30;;;;;;5014420;28;20216;-76
2023/01/23 06:18:18;;;;;;;20.50;19.20;;;6.00;29.90;;;;;;5015809;28;20412;-76
2023/01/23 06:20:43;;;;;;;20.40;19.10;;;6.00;29.80;;;;;;5013310;28;20656;-75
2023/01/23 06:23:09;;;;;;;21.50;20.07;;;6.00;29.40;;;;;;5015300;28;20409;-75
2023/01/23 06:25:35;;;;;;;22.00;20.57;;;6.00;29.40;;;;;;5013463;28;20674;-74
2023/01/23 06:28:01;;;;;;;20.40;19.00;;;5.90;30.00;;;;;;5014784;28;20683;-75
2023/01/23 06:30:27;;;;;;;22.90;21.20;;;5.80;29.90;;;;;;5014495;28;20416;-74
2023/01/23 06:32:52;;;;;;;19.80;18.60;;;5.60;31.20;;;;;;5013585;28;20843;-75
2023/01/23 06:35:18;;;;;;;20.90;19.50;;;5.70;31.30;;;;;;4997787;28;20186;-75
2023/01/23 06:37:43;;;;;;;22.37;20.80;;;5.70;30.90;;;;;;5013920;28;20197;-75
2023/01/23 06:40:12;;;;;;;20.13;18.90;;;5.70;30.50;;;;;;5018461;28;20279;-75
2023/01/23 06:42:39;;;;;;;22.53;20.83;;;5.60;31.30;;;;;;5013057;28;20197;-75
2023/01/23 06:45:06;;;;;;;21.27;19.80;;;5.60;31.70;;;;;;5029923;28;20473;-75
2023/01/23 06:47:31;;;;;;;22.57;20.97;;;5.40;31.70;;;;;;5029967;28;20458;-74
2023/01/23 06:49:57;;;;;;;20.87;19.50;;;5.30;32.90;;;;;;5019512;28;20411;-74
2023/01/23 06:52:22;;;;;;;21.20;19.90;;;5.30;32.50;;;;;;5028940;28;20223;-75
2023/01/23 06:54:48;;;;;;;21.33;19.93;;;5.40;32.20;;;;;;5013403;28;20216;-74
2023/01/23 06:57:14;;;;;;;21.80;20.30;;;5.60;31.80;;;;;;5024903;28;20348;-75
2023/01/23 06:59:40;;;;;;;20.57;19.27;;;5.60;31.20;;;;;;5027310;28;20343;-75
2023/01/23 07:02:05;;;;;;;20.57;19.27;;;5.70;31.20;;;;;;5012986;28;20285;-74
2023/01/23 07:04:32;;;;;;;21.10;19.70;;;5.70;30.80;;;;;;5023685;28;20675;-75
2023/01/23 07:06:57;;;;;;;21.53;20.07;;;5.70;30.70;;;;;;5022219;28;20267;-74
2023/01/23 07:09:23;;;;;;;22.77;21.27;;;5.50;32.40;;;;;;5021661;28;20464;-74
2023/01/23 07:11:49;;;;;;;22.53;20.90;;;5.50;31.70;;;;;;5019661;28;20478;-75
2023/01/23 07:14:14;;;;;;;20.63;19.23;;;5.60;31.70;;;;;;5027457;28;20208;-74
2023/01/23 07:16:40;;;;;;;20.70;19.30;;;5.70;31.20;;;;;;5029991;28;20239;-74
2023/01/23 07:19:06;;;;;;;21.40;19.87;;;5.80;31.00;;;;;;5026501;28;20197;-74
2023/01/23 07:21:32;;;;;;;21.03;19.73;;;5.80;30.80;;;;;;5022933;28;20189;-73
2023/01/23 07:23:57;;;;;;;22.20;20.70;;;5.50;31.40;;;;;;5013497;28;20181;-73
2023/01/23 07:26:23;;;;;;;21.23;19.83;;;5.40;33.00;;;;;;5012337;28;20470;-74
2023/01/23 07:28:49;;;;;;;22.43;20.80;;;5.20;33.80;;;;;;5013614;28;20216;-75
2023/01/23 07:31:15;;;;;;;21.57;19.97;;;5.10;33.50;;;;;;5011215;28;20182;-75
2023/01/23 07:33:40;;;;;;;22.30;20.50;;;5.10;34.90;;;;;;5010053;28;20180;-75
2023/01/23 07:36:07;;;;;;;23.00;21.40;;;5.00;34.70;;;;;;5000574;28;20526;-76
2023/01/23 07:38:32;;;;;;;23.77;22.13;;;5.00;35.10;;;;;;5023249;28;20189;-74
2023/01/23 07:40:58;;;;;;;24.30;22.70;;;5.10;34.60;;;;;;5027992;28;20507;-74
2023/01/23 07:43:24;;;;;;;23.80;22.17;;;5.30;33.50;;;;;;5014564;28;20436;-74
2023/01/23 07:45:50;;;;;;;23.30;21.50;;;5.40;33.00;;;;;;5024714;28;20682;-76
2023/01/23 07:48:16;;;;;;;24.10;22.17;;;5.40;32.70;;;;;;5022154;28;20552;-74
2023/01/23 07:50:42;;;;;;;21.83;20.23;;;5.50;32.40;;;;;;5020159;28;20608;-74
2023/01/23 07:53:07;;;;;;;22.67;21.17;;;5.60;32.20;;;;;;5015979;28;20585;-76
2023/01/23 07:55:33;;;;;;;24.97;23.07;;;5.70;31.80;;;;;;5010061;28;20459;-75
2023/01/23 07:57:59;;;;;;;22.43;20.83;;;5.80;31.40;;;;;;5012775;28;20651;-75
2023/01/23 08:00:24;;;;;;;23.33;21.63;;;5.90;31.20;;;;;;5012442;28;20408;-75
2023/01/23 08:02:50;;;;;;;23.17;21.50;;;5.90;30.90;;;;;;5009764;28;20201;-75
2023/01/23 08:05:16;;;;;;;22.93;21.23;;;6.00;31.00;;;;;;5011343;28;20412;-75
2023/01/23 08:07:41;;;;;;;22.50;20.90;;;6.00;30.60;;;;;;4993036;28;20692;-75
2023/01/23 08:10:08;;;;;;;23.67;22.10;;;6.00;30.50;;;;;;5010545;28;20608;-75
2023/01/23 08:12:33;;;;;;;23.77;22.07;;;6.00;30.00;;;;;;5011245;28;20209;-74
2023/01/23 08:14:59;;;;;;;23.17;21.57;;;5.90;30.30;;;;;;5011418;28;20444;-73
2023/01/23 08:17:25;;;;;;;23.10;21.40;;;5.90;30.80;;;;;;5011039;28;20299;-74
2023/01/23 08:19:50;;;;;;;24.87;23.17;;;5.90;31.50;;;;;;5011913;28;20185;-75
2023/01/23 08:22:16;;;;;;;24.60;22.80;;;5.90;30.70;;;;;;5012085;28;20712;-73
2023/01/23 08:24:42;;;;;;;23.63;21.97;;;5.90;30.20;;;;;;5011640;28;20189;-74
2023/01/23 08:27:07;;;;;;;23.20;21.50;;;5.80;31.20;;;;;;5012837;28;20456;-74
2023/01/23 08:29:33;;;;;;;23.77;21.93;;;5.80;30.60;;;;;;5013074;28;20212;-75
2023/01/23 08:31:58;;;;;;;22.77;21.17;;;5.70;30.30;;;;;;5012251;28;20181;-74
2023/01/23 08:34:24;;;;;;;24.03;22.43;;;5.60;31.60;;;;;;5013253;28;20194;-75
2023/01/23 08:36:50;;;;;;;22.90;21.30;;;5.60;32.20;;;;;;5012209;28;20248;-75
2023/01/23 08:39:17;;;;;;;23.33;21.80;;;5.60;31.30;;;;;;5011461;28;20185;-75
2023/01/23 08:41:42;;;;;;;22.03;20.43;;;5.60;31.50;;;;;;5012243;28;20553;-74
2023/01/23 08:44:08;;;;;;;23.77;22.07;;;5.70;31.40;;;;;;5011332;28;20431;-74
2023/01/23 08:46:33;;;;;;;22.90;21.30;;;5.70;31.00;;;;;;5012351;28;20205;-74
2023/01/23 08:48:59;;;;;;;22.70;21.03;;;5.70;30.80;;;;;;5012363;28;20368;-73
2023/01/23 08:51:26;;;;;;;23.97;21.97;;;5.90;30.50;;;;;;5012815;28;20188;-74
2023/01/23 08:53:52;;;;;;;22.73;21.03;;;5.90;29.90;;;;;;4995104;28;20193;-74
2023/01/23 08:56:20;;;;;;;21.20;19.70;;;5.90;30.00;;;;;;5011030;28;20428;-73
2023/01/23 08:58:46;;;;;;;24.40;22.60;;;6.00;29.40;;;;;;5012191;28;20193;-74
2023/01/23 09:01:21;;;;;;;22.63;20.90;;;6.00;29.40;;;;;;5012427;28;20767;-74
2023/01/23 09:03:47;;;;;;;20.83;19.40;;;6.10;29.00;;;;;;5012229;28;20430;-75
2023/01/23 09:06:15;;;;;;;21.97;20.37;;;6.10;28.70;;;;;;5011127;28;21135;-75
2023/01/23 09:08:41;;;;;;;21.23;19.73;;;6.10;28.10;;;;;;5012146;28;20247;-75
2023/01/23 09:11:09;;;;;;;22.47;20.93;;;6.10;28.30;;;;;;5012381;28;20850;-74
2023/01/23 09:13:34;;;;;;;20.10;18.60;;;6.20;28.30;;;;;;4994575;28;20519;-74
2023/01/23 09:16:01;;;;;;;20.97;19.43;;;6.00;27.90;;;;;;4994503;28;20948;-75
2023/01/23 09:18:26;;;;;;;21.93;20.30;;;5.90;28.00;;;;;;5012196;28;20185;-74
2023/01/23 09:20:53;;;;;;;20.90;19.50;;;5.90;28.30;;;;;;5010889;28;20830;-74
2023/01/23 09:23:19;;;;;;;20.60;19.00;;;5.90;28.10;;;;;;5012270;28;20280;-74
2023/01/23 09:25:44;;;;;;;21.87;20.27;;;5.90;28.60;;;;;;5012562;28;20460;-75
2023/01/23 09:28:10;;;;;;;19.60;18.20;;;5.90;27.80;;;;;;5013006;28;20498;-73
2023/01/23 09:30:36;;;;;;;19.97;18.57;;;5.80;27.90;;;;;;5012700;28;20173;-74
2023/01/23 09:33:02;;;;;;;20.20;18.70;;;5.70;28.10;;;;;;4994790;28;20803;-74
2023/01/23 09:35:28;;;;;;;19.33;17.93;;;5.60;27.60;;;;;;5011080;28;20185;-75
2023/01/23 09:37:59;;;;;;;19.40;18.10;;;5.50;28.00;;;;;;5012448;28;20428;-75
2023/01/23 09:40:28;;;;;;;18.97;17.77;;;5.50;27.70;;;;;;4995491;28;20563;-77
2023/01/23 09:43:08;;;;;;;18.57;17.37;;;5.60;27.20;;;;;;5012772;28;20450;-77
2023/01/23 09:45:33;;;;;;;19.47;18.23;;;5.70;27.20;;;;;;5012347;28;20407;-75
2023/01/23 09:48:11;;;;;;;20.33;18.93;;;5.80;27.00;;;;;;5011587;28;20472;-75
2023/01/23 09:50:47;;;;;;;20.87;19.37;;;5.80;27.10;;;;;;5016379;28;20173;-74
2023/01/23 09:53:16;;;;;;;18.70;17.40;;;5.70;27.00;;;;;;5014850;28;20408;-74
2023/01/23 09:55:47;;;;;;;18.37;17.07;;;5.60;27.50;;;;;;5016202;28;20506;-74
2023/01/23 09:58:29;;;;;;;17.70;16.50;;;5.70;27.20;;;;;;5016306;28;20416;-75
2023/01/23 10:00:55;;;;;;;18.30;17.00;;;5.70;26.80;;;;;;5016102;28;20423;-75
2023/01/23 10:03:22;;;;;;;19.20;17.80;;;5.70;26.60;;;;;;5014685;28;20794;-75
2023/01/23 10:06:22;;;;;;;20.23;18.83;;;5.60;27.10;;;;;;5015799;28;20197;-75
2023/01/23 10:09:03;;;;;;;18.70;17.37;;;5.60;27.30;;;;;;5014492;28;20474;-75
2023/01/23 10:11:41;;;;;;;18.83;17.53;;;5.50;27.30;;;;;;5015841;28;20408;-75
2023/01/23 10:14:45;;;;;;;17.77;16.67;;;5.30;28.00;;;;;;5015980;28;20938;-74
2023/01/23 10:17:21;;;;;;;20.30;18.80;;;5.30;28.40;;;;;;5015747;28;20428;-75
2023/01/23 10:20:02;;;;;;;19.30;18.00;;;5.20;28.90;;;;;;4998286;28;20431;-74
2023/01/23 10:22:50;;;;;;;19.63;18.33;;;5.20;28.90;;;;;;5015670;28;20454;-75
2023/01/23 10:25:25;;;;;;;19.70;18.33;;;5.20;29.00;;;;;;5014289;28;20426;-74
2023/01/23 10:27:54;;;;;;;19.10;17.90;;;5.40;28.90;;;;;;5015018;28;20467;-74
2023/01/23 10:30:29;;;;;;;18.53;17.07;;;5.60;28.50;;;;;;5015730;28;20404;-75
2023/01/23 10:33:15;;;;;;;19.77;18.37;;;5.60;27.90;;;;;;5013809;28;20416;-75
2023/01/23 10:36:02;;;;;;;20.80;19.40;;;5.70;27.70;;;;;;5014177;28;20496;-76
2023/01/23 10:38:34;;;;;;;19.30;17.80;;;5.70;27.90;;;;;;5015488;28;20930;-74
2023/01/23 10:41:18;;;;;;;19.33;17.90;;;5.80;27.80;;;;;;5015231;28;20409;-74
2023/01/23 10:43:49;;;;;;;20.13;18.70;;;5.70;27.60;;;;;;5014893;28;20777;-74
2023/01/23 10:46:18;;;;;;;21.07;19.40;;;5.80;27.80;;;;;;5014941;28;20439;-75
2023/01/23 10:48:49;;;;;;;20.93;19.20;;;5.90;27.50;;;;;;5014634;28;20460;-74
2023/01/23 10:51:45;;;;;;;19.77;18.50;;;5.80;28.20;;;;;;5013290;28;20417;-74
2023/01/23 10:54:23;;;;;;;18.47;17.17;;;5.70;28.30;;;;;;5014886;28;20424;-75
2023/01/23 10:56:57;;;;;;;17.83;16.60;;;5.70;28.30;;;;;;5014546;28;20432;-75
2023/01/23 10:59:34;;;;;;;19.30;18.00;;;5.80;27.10;;;;;;5014319;28;20412;-74
2023/01/23 11:02:00;;;;;;;19.77;18.37;;;5.80;27.00;;;;;;5014448;28;20482;-74
2023/01/23 11:04:28;;;;;;;21.43;19.93;;;5.80;27.90;;;;;;5013434;28;20416;-75
2023/01/23 11:07:08;;;;;;;19.63;18.30;;;5.90;27.20;;;;;;5014561;28;20205;-74
2023/01/23 11:09:46;;;;;;;20.97;19.30;;;6.00;26.70;;;;;;5014237;28;20538;-75
2023/01/23 11:12:16;;;;;;;20.50;19.20;;;6.00;26.50;;;;;;5014236;28;20408;-74
2023/01/23 11:14:41;;;;;;;19.63;18.33;;;5.90;26.50;;;;;;5014218;28;20491;-75
2023/01/23 11:17:17;;;;;;;19.03;17.73;;;5.90;26.40;;;;;;5012854;28;20547;-75
2023/01/23 11:19:45;;;;;;;20.00;18.63;;;5.80;27.10;;;;;;5014177;28;20600;-75
2023/01/23 11:22:35;;;;;;;19.30;18.00;;;5.80;27.10;;;;;;5014530;28;20412;-75
2023/01/23 11:25:28;;;;;;;18.17;17.03;;;5.90;27.10;;;;;;5006282;28;20467;-74
2023/01/23 11:28:02;;;;;;;20.33;18.87;;;5.90;26.80;;;;;;5014086;28;20464;-74
2023/01/23 11:30:40;;;;;;;20.93;19.53;;;5.90;27.40;;;;;;5014078;28;20405;-75
2023/01/23 11:33:13;;;;;;;19.63;18.20;;;5.90;27.50;;;;;;5013792;28;20420;-76
2023/01/23 11:35:39;;;;;;;18.93;17.57;;;5.90;27.10;;;;;;5013986;28;20420;-76
2023/01/23 11:38:05;;;;;;;19.57;18.10;;;5.90;27.10;;;;;;5014049;28;20476;-76
2023/01/23 11:40:30;;;;;;;20.80;19.30;;;5.90;26.90;;;;;;5013755;28;20550;-76
2023/01/23 11:42:56;;;;;;;20.37;18.90;;;5.90;26.80;;;;;;5013691;28;20428;-75
2023/01/23 11:45:42;;;;;;;20.60;19.07;;;5.80;26.90;;;;;;4996290;28;20659;-75
2023/01/23 11:48:27;;;;;;;19.93;18.50;;;5.80;27.50;;;;;;5013946;28;20209;-74
2023/01/23 11:51:26;;;;;;;21.50;19.80;;;5.80;27.30;;;;;;5013430;28;20414;-76
2023/01/23 11:53:58;;;;;;;22.00;20.20;;;5.70;28.10;;;;;;4996031;28;20788;-76
2023/01/23 11:56:42;;;;;;;20.60;19.10;;;5.70;27.50;;;;;;5012719;28;20463;-76
2023/01/23 11:59:19;;;;;;;21.37;19.80;;;5.70;27.90;;;;;;4996277;28;20435;-75
2023/01/23 12:02:22;;;;;;;21.10;19.60;;;5.80;27.60;;;;;;4995860;28;20423;-75
2023/01/23 12:04:54;;;;;;;21.30;19.80;;;5.70;27.50;;;;;;4995929;28;20424;-74
2023/01/23 12:07:22;;;;;;;19.60;18.20;;;5.70;27.70;;;;;;5013506;28;20781;-75
2023/01/23 12:10:06;;;;;;;20.40;19.00;;;5.70;27.90;;;;;;5012290;28;20959;-74
2023/01/23 12:12:52;;;;;;;21.07;19.47;;;5.80;28.10;;;;;;5012627;28;20820;-75
2023/01/23 12:15:27;;;;;;;21.50;19.80;;;6.00;27.50;;;;;;5012929;28;20405;-76
2023/01/23 12:18:11;;;;;;;20.63;19.20;;;5.90;27.80;;;;;;5013196;28;20404;-75
2023/01/23 12:21:02;;;;;;;21.03;19.57;;;5.90;28.10;;;;;;5012811;28;20829;-75
2023/01/23 12:23:44;;;;;;;20.63;19.10;;;6.00;28.00;;;;;;5012945;28;20466;-75
2023/01/23 12:26:18;;;;;;;22.20;20.60;;;6.10;27.40;;;;;;5012852;28;20498;-75
2023/01/23 12:29:21;;;;;;;20.57;19.20;;;6.10;27.30;;;;;;4994939;28;20460;-75
2023/01/23 12:32:26;;;;;;;21.60;20.10;;;5.90;27.60;;;;;;4995252;28;20760;-75
2023/01/23 12:34:57;;;;;;;19.90;18.50;;;5.90;28.00;;;;;;4997930;28;20417;-76
2023/01/23 12:37:42;;;;;;;22.33;20.73;;;5.90;27.90;;;;;;5006684;28;20528;-75
2023/01/23 12:40:21;;;;;;;22.60;20.90;;;5.90;28.20;;;;;;5004250;28;20416;-74
2023/01/23 12:43:00;;;;;;;21.57;20.03;;;6.00;28.00;;;;;;5025239;28;20739;-76
2023/01/23 12:45:28;;;;;;;20.50;19.00;;;6.10;27.70;;;;;;5023845;28;20918;-75
2023/01/23 12:48:18;;;;;;;21.30;19.70;;;6.10;27.70;;;;;;5004698;28;20982;-75
2023/01/23 12:50:51;;;;;;;20.77;19.27;;;6.00;27.80;;;;;;5015612;28;20806;-74
2023/01/23 12:53:20;;;;;;;21.23;19.73;;;6.00;27.80;;;;;;5013138;28;20444;-75